KCOF/COF METAR and TAF weather

Enter ICAO airport designator
Station Type Date Time Source
KCOF METAR 2018/12/10 16:56 UTC NOAA

KCOF 101656Z AUTO 28014KT 10SM BKN032 16/09 A3007 RMK AO2 SLP187 T01600092 $


Station Type Date Time Source
KCOF Decoded METAR 2018/12/10 16:56 UTC NOAA

Cocoa / Patrick Air Force Base, FL, United States (KCOF) 28-14N 080-36W 3M
Dec 10, 2018 - 11:56 AM EST / 2018.12.10 1656 UTC
Wind: from the W (280 degrees) at 16 MPH (14 KT):0
Visibility: 10 mile(s):0
Sky conditions: mostly cloudy
Temperature: 60.8 F (16.0 C)
Dew Point: 48.6 F (9.2 C)
Relative Humidity: 63%
Pressure (altimeter): 30.07 in. Hg (1018 hPa)
ob: KCOF 101656Z AUTO 28014KT 10SM BKN032 16/09 A3007 RMK AO2 SLP187 T01600092
cycle: 17

Station Type Date Time Source
KCOF TAF 2018/12/10 11:07 UTC NOAA

TAF KCOF 101100Z 1011/1117 29012KT 9999 BKN010 QNH2994INS
BECMG 1016/1017 29012G18KT 9999 SCT025 QNH2997INS
BECMG 1105/1106 31014G20KT 9999 SCT020 QNH3001INS TX18/1018Z TN06/1110Z


Example: see airport list